createdAt,value
2018-09-26T00:00:52.894Z,0
2018-09-26T00:01:53.140Z,0
2018-09-26T00:02:53.381Z,0
2018-09-26T00:03:52.578Z,0
2018-09-26T00:04:53.088Z,0
2018-09-26T00:05:53.328Z,0
2018-09-26T00:06:53.319Z,0
2018-09-26T00:07:53.297Z,0
2018-09-26T00:08:53.286Z,0
2018-09-26T00:09:52.996Z,0
2018-09-26T00:10:53.246Z,0
2018-09-26T00:11:52.962Z,0
2018-09-26T00:12:53.227Z,0
2018-09-26T00:13:52.934Z,0
2018-09-26T00:14:52.913Z,0
2018-09-26T00:15:52.892Z,0
2018-09-26T00:16:52.877Z,0
2018-09-26T00:17:53.132Z,0
2018-09-26T00:18:52.588Z,0
2018-09-26T00:19:53.084Z,0
2018-09-26T00:20:53.068Z,0
2018-09-26T00:21:52.789Z,0
2018-09-26T00:22:53.036Z,0
2018-09-26T00:23:52.224Z,0
2018-09-26T00:24:52.737Z,0
2018-09-26T00:25:52.455Z,0
2018-09-26T00:26:52.172Z,0
2018-09-26T00:27:52.420Z,0
2018-09-26T00:28:52.673Z,0
2018-09-26T00:29:52.647Z,0
2018-09-26T00:30:52.357Z,0
2018-09-26T00:31:52.351Z,0
2018-09-26T00:32:52.863Z,0
2018-09-26T00:33:52.310Z,0
2018-09-26T00:34:52.291Z,0
2018-09-26T00:35:52.806Z,0
2018-09-26T00:36:52.252Z,0
2018-09-26T00:37:52.238Z,0
2018-09-26T00:38:52.511Z,0
2018-09-26T00:39:52.199Z,0
2018-09-26T00:40:52.447Z,0
2018-09-26T00:41:52.439Z,0
2018-09-26T00:42:52.150Z,0
2018-09-26T00:43:52.445Z,0
2018-09-26T00:44:52.115Z,0
2018-09-26T00:45:52.362Z,0
2018-09-26T00:46:52.608Z,0
2018-09-26T00:47:52.329Z,0
2018-09-26T00:48:52.315Z,0
2018-09-26T00:49:52.290Z,0
2018-09-26T00:50:52.538Z,0
2018-09-26T00:51:51.983Z,0
2018-09-26T00:52:52.507Z,0
2018-09-26T00:53:52.012Z,0
2018-09-26T00:54:52.471Z,0
2018-09-26T00:55:52.120Z,0
2018-09-26T00:56:52.163Z,0
2018-09-26T00:57:51.884Z,0
2018-09-26T00:58:52.390Z,0
2018-09-26T00:59:52.120Z,0
2018-09-26T01:00:52.371Z,0
2018-09-26T01:01:52.076Z,0
2018-09-26T01:02:52.059Z,0
2018-09-26T01:03:51.780Z,0
2018-09-26T01:04:52.023Z,0
2018-09-26T01:05:52.001Z,0
2018-09-26T01:06:51.464Z,0
2018-09-26T01:07:51.969Z,0
2018-09-26T01:08:51.955Z,0
2018-09-26T01:09:51.669Z,0
2018-09-26T01:10:52.179Z,0
2018-09-26T01:11:52.167Z,0
2018-09-26T01:12:51.898Z,0
2018-09-26T01:13:52.129Z,0
2018-09-26T01:14:51.844Z,0
2018-09-26T01:15:51.831Z,0
2018-09-26T01:16:52.085Z,0
2018-09-26T01:17:51.790Z,0
2018-09-26T01:18:51.513Z,0
2018-09-26T01:19:51.751Z,0
2018-09-26T01:20:51.736Z,0
2018-09-26T01:21:51.984Z,0
2018-09-26T01:22:51.706Z,0
2018-09-26T01:23:51.948Z,0
2018-09-26T01:24:51.668Z,0
2018-09-26T01:25:51.862Z,0
2018-09-26T01:26:51.627Z,0
2018-09-26T01:27:51.607Z,0
2018-09-26T01:28:51.332Z,0
2018-09-26T01:29:51.585Z,0
2018-09-26T01:30:51.563Z,0
2018-09-26T01:31:51.280Z,0
2018-09-26T01:32:51.000Z,0
2018-09-26T01:33:51.248Z,0
2018-09-26T01:34:51.486Z,0
2018-09-26T01:35:51.472Z,0
2018-09-26T01:36:51.453Z,0
2018-09-26T01:37:51.433Z,0
2018-09-26T01:38:51.419Z,0
2018-09-26T01:39:51.414Z,0
2018-09-26T01:40:51.380Z,0
2018-09-26T01:41:51.110Z,0
2018-09-26T01:42:51.355Z,0
2018-09-26T01:43:51.063Z,0
2018-09-26T01:44:51.573Z,0
2018-09-26T01:45:51.296Z,0
2018-09-26T01:46:51.554Z,0
2018-09-26T01:47:50.993Z,0
2018-09-26T01:48:50.975Z,0
2018-09-26T01:49:51.485Z,0
2018-09-26T01:50:51.467Z,0
2018-09-26T01:51:51.459Z,0
2018-09-26T01:52:51.444Z,0
2018-09-26T01:53:51.208Z,0
2018-09-26T01:54:51.132Z,0
2018-09-26T01:55:50.856Z,0
2018-09-26T01:56:51.099Z,0
2018-09-26T01:57:51.088Z,0
2018-09-26T01:58:51.065Z,0
2018-09-26T01:59:50.521Z,0
2018-09-26T02:00:51.022Z,0
2018-09-26T02:01:50.487Z,0
2018-09-26T02:02:51.254Z,0
2018-09-26T02:03:50.711Z,0
2018-09-26T02:04:51.224Z,0
2018-09-26T02:05:50.430Z,0
2018-09-26T02:06:50.934Z,0
2018-09-26T02:07:50.659Z,0
2018-09-26T02:08:50.629Z,0
2018-09-26T02:09:50.335Z,0
2018-09-26T02:10:51.114Z,0
2018-09-26T02:11:50.832Z,0
2018-09-26T02:12:50.548Z,0
2018-09-26T02:13:50.796Z,0
2018-09-26T02:14:51.043Z,0
2018-09-26T02:15:50.241Z,0
2018-09-26T02:16:50.743Z,0
2018-09-26T02:17:50.717Z,0
2018-09-26T02:18:50.707Z,0
2018-09-26T02:19:50.424Z,0
2018-09-26T02:20:50.410Z,0
2018-09-26T02:21:50.662Z,0
2018-09-26T02:22:50.636Z,0
2018-09-26T02:23:50.215Z,0
2018-09-26T02:24:50.599Z,0
2018-09-26T02:25:50.320Z,0
2018-09-26T02:26:50.841Z,0
2018-09-26T02:27:50.810Z,0
2018-09-26T02:28:49.997Z,0
2018-09-26T02:29:50.517Z,0
2018-09-26T02:30:50.499Z,0
2018-09-26T02:31:50.230Z,0
2018-09-26T02:32:50.748Z,0
2018-09-26T02:33:50.199Z,0
2018-09-26T02:34:50.427Z,0
2018-09-26T02:35:50.417Z,0
2018-09-26T02:36:49.860Z,0
2018-09-26T02:37:50.393Z,0
2018-09-26T02:38:50.097Z,0
2018-09-26T02:39:50.340Z,0
2018-09-26T02:40:50.578Z,0
2018-09-26T02:41:50.306Z,0
2018-09-26T02:42:50.560Z,0
2018-09-26T02:43:50.001Z,0
2018-09-26T02:44:50.518Z,0
2018-09-26T02:45:50.260Z,0
2018-09-26T02:46:49.680Z,0
2018-09-26T02:47:50.199Z,0
2018-09-26T02:48:49.912Z,0
2018-09-26T02:49:49.939Z,0
2018-09-26T02:50:50.138Z,0
2018-09-26T02:51:50.121Z,0
2018-09-26T02:52:50.112Z,0
2018-09-26T02:53:50.341Z,0
2018-09-26T02:54:50.081Z,0
2018-09-26T02:55:50.859Z,0
2018-09-26T02:56:50.031Z,0
2018-09-26T02:57:49.750Z,0
2018-09-26T02:58:49.746Z,0
2018-09-26T02:59:50.250Z,0
2018-09-26T03:00:49.700Z,0
2018-09-26T03:01:50.212Z,0
2018-09-26T03:02:49.927Z,0
2018-09-26T03:03:49.904Z,0
2018-09-26T03:04:50.167Z,0
2018-09-26T03:05:50.138Z,0
2018-09-26T03:06:50.108Z,0
2018-09-26T03:07:49.593Z,0
2018-09-26T03:08:50.088Z,0
2018-09-26T03:09:49.808Z,0
2018-09-26T03:10:49.633Z,0
2018-09-26T03:11:50.034Z,0
2018-09-26T03:12:49.740Z,0
2018-09-26T03:13:49.476Z,0
2018-09-26T03:14:49.705Z,0
2018-09-26T03:15:49.950Z,0
2018-09-26T03:16:49.678Z,0
2018-09-26T03:17:49.906Z,0
2018-09-26T03:18:49.636Z,0
2018-09-26T03:19:49.882Z,0
2018-09-26T03:20:49.327Z,0
2018-09-26T03:21:49.308Z,0
2018-09-26T03:22:49.292Z,0
2018-09-26T03:23:49.536Z,0
2018-09-26T03:24:49.254Z,0
2018-09-26T03:25:49.774Z,0
2018-09-26T03:26:49.223Z,0
2018-09-26T03:27:49.472Z,0
2018-09-26T03:28:49.189Z,0
2018-09-26T03:29:49.177Z,0
2018-09-26T03:30:49.420Z,0
2018-09-26T03:31:49.695Z,0
2018-09-26T03:32:49.113Z,0
2018-09-26T03:33:49.235Z,0
2018-09-26T03:34:49.081Z,0
2018-09-26T03:35:49.325Z,0
2018-09-26T03:36:48.771Z,0
2018-09-26T03:37:48.762Z,0
2018-09-26T03:38:49.272Z,0
2018-09-26T03:39:48.984Z,0
2018-09-26T03:40:48.973Z,0
2018-09-26T03:41:49.220Z,0
2018-09-26T03:42:49.203Z,0
2018-09-26T03:43:49.453Z,0
2018-09-26T03:44:49.425Z,0
2018-09-26T03:45:48.616Z,0
2018-09-26T03:46:49.135Z,0
2018-09-26T03:47:48.846Z,0
2018-09-26T03:48:49.086Z,0
2018-09-26T03:49:49.340Z,0
2018-09-26T03:50:49.061Z,0
2018-09-26T03:51:48.776Z,0
2018-09-26T03:52:49.022Z,0
2018-09-26T03:53:48.478Z,0
2018-09-26T03:54:48.981Z,0
2018-09-26T03:55:48.703Z,0
2018-09-26T03:56:48.418Z,0
2018-09-26T03:57:48.931Z,0
2018-09-26T03:58:48.914Z,0
2018-09-26T03:59:48.890Z,0
2018-09-26T04:00:49.139Z,0
2018-09-26T04:01:48.592Z,0
2018-09-26T04:02:48.838Z,0
2018-09-26T04:03:48.556Z,0
2018-09-26T04:04:49.225Z,0
2018-09-26T04:05:49.053Z,0
2018-09-26T04:06:48.505Z,0
2018-09-26T04:07:48.223Z,0
2018-09-26T04:08:48.733Z,0
2018-09-26T04:09:48.976Z,0
2018-09-26T04:10:48.696Z,0
2018-09-26T04:11:48.680Z,0
2018-09-26T04:12:49.122Z,0
2018-09-26T04:13:48.113Z,0
2018-09-26T04:14:48.625Z,0
2018-09-26T04:15:48.452Z,0
2018-09-26T04:16:48.336Z,0
2018-09-26T04:17:48.570Z,0
2018-09-26T04:18:48.560Z,0
2018-09-26T04:19:48.271Z,0
2018-09-26T04:20:48.257Z,0
2018-09-26T04:21:48.498Z,0
2018-09-26T04:22:48.748Z,0
2018-09-26T04:23:48.203Z,0
2018-09-26T04:24:48.188Z,0
2018-09-26T04:25:48.162Z,0
2018-09-26T04:26:48.842Z,0
2018-09-26T04:27:48.896Z,0
2018-09-26T04:28:48.108Z,0
2018-09-26T04:29:48.641Z,0
2018-09-26T04:30:48.370Z,0
2018-09-26T04:31:48.059Z,0
2018-09-26T04:32:48.334Z,0
2018-09-26T04:33:48.334Z,0
2018-09-26T04:34:48.005Z,0
2018-09-26T04:35:47.981Z,0
2018-09-26T04:36:48.230Z,0
2018-09-26T04:37:48.212Z,0
2018-09-26T04:38:48.646Z,0
2018-09-26T04:39:48.172Z,0
2018-09-26T04:40:48.159Z,0
2018-09-26T04:41:47.615Z,0
2018-09-26T04:42:47.855Z,0
2018-09-26T04:43:48.103Z,0
2018-09-26T04:44:47.575Z,0
2018-09-26T04:45:47.811Z,0
2018-09-26T04:46:48.319Z,0
2018-09-26T04:47:47.767Z,0
2018-09-26T04:48:48.026Z,0
2018-09-26T04:49:47.997Z,0
2018-09-26T04:50:48.040Z,0
2018-09-26T04:51:47.962Z,0
2018-09-26T04:52:47.936Z,0
2018-09-26T04:53:48.196Z,0
2018-09-26T04:54:47.648Z,0
2018-09-26T04:55:48.038Z,0
2018-09-26T04:56:48.130Z,0
2018-09-26T04:57:48.004Z,4
2018-09-26T04:58:48.102Z,4
2018-09-26T04:59:47.553Z,0
2018-09-26T05:00:47.790Z,4
2018-09-26T05:01:47.522Z,4
2018-09-26T05:02:48.029Z,8
2018-09-26T05:03:47.734Z,4
2018-09-26T05:04:47.726Z,8
2018-09-26T05:05:47.442Z,8
2018-09-26T05:06:47.423Z,12
2018-09-26T05:07:47.400Z,12
2018-09-26T05:08:47.382Z,12
2018-09-26T05:09:47.910Z,16
2018-09-26T05:10:47.882Z,20
2018-09-26T05:11:47.338Z,24
2018-09-26T05:12:47.836Z,28
2018-09-26T05:13:47.290Z,32
2018-09-26T05:14:47.795Z,40
2018-09-26T05:15:47.515Z,40
2018-09-26T05:16:47.232Z,48
2018-09-26T05:17:47.485Z,52
2018-09-26T05:18:47.475Z,56
2018-09-26T05:19:47.443Z,64
2018-09-26T05:20:47.432Z,68
2018-09-26T05:21:47.421Z,76
2018-09-26T05:22:47.840Z,84
2018-09-26T05:23:47.111Z,88
2018-09-26T05:24:47.354Z,96
2018-09-26T05:25:47.067Z,104
2018-09-26T05:26:47.584Z,116
2018-09-26T05:27:47.037Z,124
2018-09-26T05:28:47.026Z,140
2018-09-26T05:29:47.263Z,152
2018-09-26T05:30:46.993Z,168
2018-09-26T05:31:47.496Z,180
2018-09-26T05:32:47.485Z,192
2018-09-26T05:33:46.929Z,212
2018-09-26T05:34:47.176Z,228
2018-09-26T05:35:46.898Z,248
2018-09-26T05:36:47.135Z,264
2018-09-26T05:37:47.378Z,280
2018-09-26T05:38:46.835Z,300
2018-09-26T05:39:47.090Z,320
2018-09-26T05:40:47.062Z,344
2018-09-26T05:41:47.156Z,372
2018-09-26T05:42:47.285Z,396
2018-09-26T05:43:46.745Z,424
2018-09-26T05:44:46.988Z,452
2018-09-26T05:45:46.968Z,488
2018-09-26T05:46:46.954Z,520
2018-09-26T05:47:46.934Z,556
2018-09-26T05:48:46.903Z,592
2018-09-26T05:49:46.362Z,620
2018-09-26T05:50:47.164Z,648
2018-09-26T05:51:46.596Z,672
2018-09-26T05:52:46.314Z,704
2018-09-26T05:53:47.087Z,736
2018-09-26T05:54:46.801Z,768
2018-09-26T05:55:46.785Z,808
2018-09-26T05:56:46.760Z,848
2018-09-26T05:57:46.220Z,884
2018-09-26T05:58:46.723Z,920
2018-09-26T05:59:46.618Z,956
2018-09-26T06:00:46.701Z,992
2018-09-26T06:01:46.150Z,1020
2018-09-26T06:02:46.925Z,1052
2018-09-26T06:03:46.372Z,1092
2018-09-26T06:04:46.367Z,1128
2018-09-26T06:05:46.083Z,1164
2018-09-26T06:06:46.055Z,1196
2018-09-26T06:07:46.570Z,1228
2018-09-26T06:08:46.550Z,1260
2018-09-26T06:09:46.530Z,1288
2018-09-26T06:10:46.248Z,1316
2018-09-26T06:11:46.520Z,1340
2018-09-26T06:12:46.679Z,1352
2018-09-26T06:13:46.460Z,1360
2018-09-26T06:14:46.169Z,1364
2018-09-26T06:15:46.422Z,1376
2018-09-26T06:16:46.408Z,1400
2018-09-26T06:17:46.384Z,1428
2018-09-26T06:18:46.105Z,1464
2018-09-26T06:19:46.358Z,1500
2018-09-26T06:20:46.337Z,1532
2018-09-26T06:21:46.326Z,1568
2018-09-26T06:22:46.035Z,1604
2018-09-26T06:23:46.277Z,1644
2018-09-26T06:24:46.866Z,1680
2018-09-26T06:25:46.245Z,1716
2018-09-26T06:26:46.228Z,1756
2018-09-26T06:27:46.201Z,1780
2018-09-26T06:28:46.458Z,1816
2018-09-26T06:29:46.166Z,1860
2018-09-26T06:30:45.890Z,1904
2018-09-26T06:31:45.869Z,1948
2018-09-26T06:32:46.131Z,1988
2018-09-26T06:33:46.098Z,2032
2018-09-26T06:34:46.403Z,2084
2018-09-26T06:35:46.060Z,2140
2018-09-26T06:36:45.790Z,2184
2018-09-26T06:37:45.817Z,2224
2018-09-26T06:38:45.751Z,2268
2018-09-26T06:39:46.261Z,2316
2018-09-26T06:40:45.450Z,2368
2018-09-26T06:41:45.964Z,2412
2018-09-26T06:42:45.673Z,2460
2018-09-26T06:43:45.926Z,2512
2018-09-26T06:44:45.637Z,2560
2018-09-26T06:45:45.886Z,2608
2018-09-26T06:46:46.136Z,2636
2018-09-26T06:47:46.031Z,2664
2018-09-26T06:48:45.847Z,2688
2018-09-26T06:49:45.825Z,2716
2018-09-26T06:50:45.535Z,2748
2018-09-26T06:51:45.796Z,2780
2018-09-26T06:52:45.512Z,2812
2018-09-26T06:53:45.747Z,2860
2018-09-26T06:54:45.483Z,2928
2018-09-26T06:55:46.629Z,2992
2018-09-26T06:56:45.961Z,3068
2018-09-26T06:57:45.684Z,3144
2018-09-26T06:58:45.923Z,3224
2018-09-26T06:59:45.644Z,3288
2018-09-26T07:00:45.639Z,3328
2018-09-26T07:01:45.354Z,3360
2018-09-26T07:02:45.343Z,3400
2018-09-26T07:03:45.578Z,3448
2018-09-26T07:04:45.563Z,3500
2018-09-26T07:05:45.549Z,3560
2018-09-26T07:06:45.268Z,3620
2018-09-26T07:07:45.257Z,3668
2018-09-26T07:08:45.761Z,3700
2018-09-26T07:09:45.735Z,3684
2018-09-26T07:10:45.456Z,3652
2018-09-26T07:11:45.186Z,3628
2018-09-26T07:12:45.439Z,3596
2018-09-26T07:13:45.144Z,3544
2018-09-26T07:14:45.128Z,3496
2018-09-26T07:15:45.111Z,3476
2018-09-26T07:16:45.099Z,3472
2018-09-26T07:17:45.346Z,3520
2018-09-26T07:18:45.588Z,3604
2018-09-26T07:19:44.781Z,3700
2018-09-26T07:20:45.295Z,3796
2018-09-26T07:21:45.013Z,3868
2018-09-26T07:22:45.262Z,3936
2018-09-26T07:23:45.240Z,3992
2018-09-26T07:24:45.238Z,4032
2018-09-26T07:25:45.215Z,4052
2018-09-26T07:26:44.930Z,4068
2018-09-26T07:27:44.923Z,4072
2018-09-26T07:28:44.892Z,4072
2018-09-26T07:29:45.145Z,4068
2018-09-26T07:30:45.134Z,4060
2018-09-26T07:31:45.470Z,4056
2018-09-26T07:32:45.373Z,4040
2018-09-26T07:33:44.819Z,4036
2018-09-26T07:34:45.063Z,4028
2018-09-26T07:35:45.043Z,4008
2018-09-26T07:36:45.298Z,4004
2018-09-26T07:37:45.018Z,4000
2018-09-26T07:38:45.152Z,4004
2018-09-26T07:39:44.718Z,4008
2018-09-26T07:40:44.702Z,4012
2018-09-26T07:41:44.955Z,4036
2018-09-26T07:42:44.664Z,4060
2018-09-26T07:43:44.393Z,4076
2018-09-26T07:44:45.166Z,4092
2018-09-26T07:45:45.013Z,4124
2018-09-26T07:46:44.604Z,4164
2018-09-26T07:47:44.846Z,4196
2018-09-26T07:48:44.308Z,4232
2018-09-26T07:49:44.553Z,4292
2018-09-26T07:50:44.802Z,4364
2018-09-26T07:51:44.521Z,4424
2018-09-26T07:52:44.512Z,4480
2018-09-26T07:53:44.490Z,4512
2018-09-26T07:54:44.212Z,4524
2018-09-26T07:55:44.722Z,4540
2018-09-26T07:56:44.445Z,4548
2018-09-26T07:57:44.431Z,4592
2018-09-26T07:58:44.951Z,4648
2018-09-26T07:59:44.928Z,4716
2018-09-26T08:00:44.969Z,4796
2018-09-26T08:01:44.636Z,4848
2018-09-26T08:02:44.353Z,4920
2018-09-26T08:03:44.600Z,4988
2018-09-26T08:04:44.581Z,5124
2018-09-26T08:05:44.562Z,5192
2018-09-26T08:06:44.290Z,5300
2018-09-26T08:07:44.274Z,5288
2018-09-26T08:08:44.542Z,5356
2018-09-26T08:09:44.499Z,5380
2018-09-26T08:10:44.756Z,5356
2018-09-26T08:11:44.675Z,5336
2018-09-26T08:12:44.461Z,5372
2018-09-26T08:13:44.437Z,5380
2018-09-26T08:14:44.530Z,5412
2018-09-26T08:15:44.147Z,5448
2018-09-26T08:16:44.401Z,5520
2018-09-26T08:17:44.380Z,5528
2018-09-26T08:18:44.697Z,5572
2018-09-26T08:19:44.082Z,5628
2018-09-26T08:20:44.074Z,5708
2018-09-26T08:21:44.322Z,5800
2018-09-26T08:22:44.313Z,5860
2018-09-26T08:23:44.248Z,5936
2018-09-26T08:24:44.266Z,6004
2018-09-26T08:25:43.731Z,6064
2018-09-26T08:26:43.718Z,6128
2018-09-26T08:27:43.962Z,6180
2018-09-26T08:28:43.953Z,6272
2018-09-26T08:29:43.693Z,6372
2018-09-26T08:30:43.912Z,6452
2018-09-26T08:31:44.165Z,6532
2018-09-26T08:32:43.899Z,6584
2018-09-26T08:33:44.143Z,6616
2018-09-26T08:34:43.587Z,6624
2018-09-26T08:35:43.841Z,6600
2018-09-26T08:36:44.096Z,6632
2018-09-26T08:37:44.095Z,6628
2018-09-26T08:38:44.325Z,6600
2018-09-26T08:39:44.052Z,6604
2018-09-26T08:40:43.772Z,6616
2018-09-26T08:41:44.021Z,6628
2018-09-26T08:42:44.006Z,6620
2018-09-26T08:43:44.055Z,6628
2018-09-26T08:44:43.710Z,6688
2018-09-26T08:45:43.698Z,6832
2018-09-26T08:46:44.207Z,6992
2018-09-26T08:47:43.665Z,7108
2018-09-26T08:48:43.921Z,7176
2018-09-26T08:49:43.905Z,7228
2018-09-26T08:50:43.626Z,7280
2018-09-26T08:51:43.868Z,7364
2018-09-26T08:52:43.858Z,7372
2018-09-26T08:53:44.369Z,7384
2018-09-26T08:54:43.834Z,7404
2018-09-26T08:55:43.823Z,7444
2018-09-26T08:56:43.533Z,7488
2018-09-26T08:57:44.050Z,7508
2018-09-26T08:58:43.509Z,7516
2018-09-26T08:59:43.651Z,7528
2018-09-26T09:00:43.741Z,7508
2018-09-26T09:01:43.470Z,7416
2018-09-26T09:02:43.459Z,7256
2018-09-26T09:03:43.707Z,7116
2018-09-26T09:04:43.685Z,6984
2018-09-26T09:05:43.676Z,6860
2018-09-26T09:06:43.660Z,6744
2018-09-26T09:07:43.655Z,6640
2018-09-26T09:08:43.639Z,6560
2018-09-26T09:09:43.358Z,6512
2018-09-26T09:10:43.910Z,6476
2018-09-26T09:11:43.848Z,6444
2018-09-26T09:12:43.588Z,6444
2018-09-26T09:13:43.840Z,6480
2018-09-26T09:14:44.797Z,6520
2018-09-26T09:15:43.524Z,6564
2018-09-26T09:16:43.520Z,6624
2018-09-26T09:17:43.922Z,6720
2018-09-26T09:18:43.764Z,6836
2018-09-26T09:19:43.484Z,6992
2018-09-26T09:20:43.471Z,7168
2018-09-26T09:21:43.189Z,7340
2018-09-26T09:22:43.174Z,7532
2018-09-26T09:23:43.688Z,7704
2018-09-26T09:24:43.152Z,7904
2018-09-26T09:25:43.396Z,8012
2018-09-26T09:26:43.662Z,7984
2018-09-26T09:27:43.717Z,8016
2018-09-26T09:28:43.105Z,8024
2018-09-26T09:29:43.605Z,8064
2018-09-26T09:30:43.590Z,8152
2018-09-26T09:31:43.581Z,8260
2018-09-26T09:32:43.044Z,8288
2018-09-26T09:33:43.290Z,8252
2018-09-26T09:34:43.297Z,8224
2018-09-26T09:35:42.734Z,8148
2018-09-26T09:36:43.892Z,8184
2018-09-26T09:37:43.238Z,8304
2018-09-26T09:38:42.963Z,8488
2018-09-26T09:39:43.482Z,8752
2018-09-26T09:40:42.938Z,9048
2018-09-26T09:41:43.204Z,9252
2018-09-26T09:42:43.181Z,9468
2018-09-26T09:43:43.160Z,9620
2018-09-26T09:44:43.153Z,9808
2018-09-26T09:45:42.870Z,9880
2018-09-26T09:46:43.398Z,9948
2018-09-26T09:47:43.383Z,10100
2018-09-26T09:48:42.575Z,10080
2018-09-26T09:49:42.819Z,10160
2018-09-26T09:50:42.807Z,10136
2018-09-26T09:51:43.614Z,10096
2018-09-26T09:52:43.042Z,10024
2018-09-26T09:53:43.303Z,9896
2018-09-26T09:54:42.762Z,9816
2018-09-26T09:55:42.477Z,9796
2018-09-26T09:56:43.000Z,9816
2018-09-26T09:57:42.978Z,9756
2018-09-26T09:58:42.450Z,9752
2018-09-26T09:59:42.961Z,9760
2018-09-26T10:00:42.679Z,9724
2018-09-26T10:01:43.202Z,9640
2018-09-26T10:02:43.609Z,9576
2018-09-26T10:03:42.674Z,9548
2018-09-26T10:04:42.624Z,9488
2018-09-26T10:05:43.143Z,9500
2018-09-26T10:06:42.861Z,9488
2018-09-26T10:07:42.859Z,9500
2018-09-26T10:08:42.961Z,9516
2018-09-26T10:09:42.573Z,9532
2018-09-26T10:10:42.558Z,9584
2018-09-26T10:11:42.544Z,9648
2018-09-26T10:12:43.056Z,9708
2018-09-26T10:13:42.518Z,9772
2018-09-26T10:14:42.508Z,9876
2018-09-26T10:15:42.761Z,10000
2018-09-26T10:16:42.218Z,10108
2018-09-26T10:17:43.406Z,10232
2018-09-26T10:18:42.724Z,10352
2018-09-26T10:19:42.970Z,10480
2018-09-26T10:20:42.975Z,10536
2018-09-26T10:21:42.419Z,10568
2018-09-26T10:22:42.667Z,10588
2018-09-26T10:23:42.923Z,10624
2018-09-26T10:24:42.117Z,10644
2018-09-26T10:25:42.633Z,10724
2018-09-26T10:26:42.368Z,10692
2018-09-26T10:27:42.610Z,10752
2018-09-26T10:28:42.615Z,10804
2018-09-26T10:29:42.586Z,10876
2018-09-26T10:30:42.838Z,10784
2018-09-26T10:31:42.877Z,10772
2018-09-26T10:32:42.551Z,10840
2018-09-26T10:33:42.273Z,10764
2018-09-26T10:34:42.855Z,10796
2018-09-26T10:35:42.256Z,10836
2018-09-26T10:36:42.506Z,10888
2018-09-26T10:37:42.492Z,10976
2018-09-26T10:38:42.485Z,11016
2018-09-26T10:39:41.937Z,11048
2018-09-26T10:40:42.792Z,11152
2018-09-26T10:41:41.920Z,11100
2018-09-26T10:42:42.431Z,11156
2018-09-26T10:43:42.154Z,11200
2018-09-26T10:44:42.143Z,11264
2018-09-26T10:45:42.402Z,11292
2018-09-26T10:46:42.885Z,11356
2018-09-26T10:47:42.111Z,11416
2018-09-26T10:48:42.095Z,11396
2018-09-26T10:49:41.819Z,11508
2018-09-26T10:50:42.608Z,11436
2018-09-26T10:51:42.074Z,11360
2018-09-26T10:52:42.592Z,11308
2018-09-26T10:53:42.569Z,11644
2018-09-26T10:54:42.294Z,11556
2018-09-26T10:55:42.025Z,12704
2018-09-26T10:56:42.961Z,12768
2018-09-26T10:57:42.256Z,12472
2018-09-26T10:58:41.978Z,13396
2018-09-26T10:59:42.232Z,12192
2018-09-26T11:00:42.483Z,11192
2018-09-26T11:01:42.204Z,10700
2018-09-26T11:02:42.441Z,10660
2018-09-26T11:03:42.193Z,10544
2018-09-26T11:04:42.179Z,10488
2018-09-26T11:05:42.183Z,10536
2018-09-26T11:06:42.413Z,10560
2018-09-26T11:07:42.408Z,10512
2018-09-26T11:08:41.596Z,10600
2018-09-26T11:09:42.121Z,10392
2018-09-26T11:10:42.107Z,10188
2018-09-26T11:11:42.104Z,10364
2018-09-26T11:12:41.920Z,11080
2018-09-26T11:13:42.369Z,12392
2018-09-26T11:14:41.795Z,11976
2018-09-26T11:15:42.052Z,11484
2018-09-26T11:16:42.044Z,10080
2018-09-26T11:17:41.823Z,12108
2018-09-26T11:18:42.386Z,10748
2018-09-26T11:19:42.009Z,10360
2018-09-26T11:20:42.360Z,10100
2018-09-26T11:21:41.991Z,10376
2018-09-26T11:22:41.449Z,10788
2018-09-26T11:23:41.962Z,10712
2018-09-26T11:24:42.213Z,10952
2018-09-26T11:25:41.676Z,11164
2018-09-26T11:26:42.263Z,11508
2018-09-26T11:27:41.651Z,12196
2018-09-26T11:28:41.905Z,12040
2018-09-26T11:29:41.901Z,11872
2018-09-26T11:30:42.143Z,11916
2018-09-26T11:31:41.887Z,12804
2018-09-26T11:32:41.865Z,14556
2018-09-26T11:33:42.012Z,15552
2018-09-26T11:34:41.850Z,15360
2018-09-26T11:35:42.108Z,18816
2018-09-26T11:36:41.826Z,21888
2018-09-26T11:37:41.822Z,26272
2018-09-26T11:38:41.805Z,16288
2018-09-26T11:39:41.798Z,21504
2018-09-26T11:40:41.801Z,27040
2018-09-26T11:41:41.508Z,43360
2018-09-26T11:42:42.026Z,33952
2018-09-26T11:43:41.495Z,34080
2018-09-26T11:44:42.236Z,38464
2018-09-26T11:45:41.742Z,25984
2018-09-26T11:46:41.727Z,25440
2018-09-26T11:47:41.723Z,30048
2018-09-26T11:48:41.459Z,59424
2018-09-26T11:49:41.971Z,56768
2018-09-26T11:50:41.169Z,53984
2018-09-26T11:51:41.690Z,51296
2018-09-26T11:52:41.422Z,51232
2018-09-26T11:53:41.419Z,55200
2018-09-26T11:54:41.683Z,62432
2018-09-26T11:55:41.671Z,64224
2018-09-26T11:56:41.678Z,64000
2018-09-26T11:57:41.668Z,62208
2018-09-26T11:58:41.397Z,62240
2018-09-26T11:59:41.662Z,59168
2018-09-26T12:00:41.380Z,58624
2018-09-26T12:01:41.390Z,55296
2018-09-26T12:02:41.528Z,51168
2018-09-26T12:03:41.635Z,49568
2018-09-26T12:04:41.627Z,55616
2018-09-26T12:05:41.887Z,62240
2018-09-26T12:06:41.894Z,66112
2018-09-26T12:07:41.929Z,68672
2018-09-26T12:08:41.351Z,69600
2018-09-26T12:09:41.616Z,68064
2018-09-26T12:10:41.080Z,61536
2018-09-26T12:11:41.616Z,57504
2018-09-26T12:12:41.870Z,52640
2018-09-26T12:13:41.114Z,52224
2018-09-26T12:14:41.857Z,54176
2018-09-26T12:15:41.592Z,58912
2018-09-26T12:16:41.908Z,63872
2018-09-26T12:17:41.599Z,65536
2018-09-26T12:18:41.584Z,69536
2018-09-26T12:19:41.605Z,73728
2018-09-26T12:20:41.586Z,77632
2018-09-26T12:21:41.429Z,81152
2018-09-26T12:22:41.920Z,81792
2018-09-26T12:23:41.586Z,81152
2018-09-26T12:24:41.598Z,79392
2018-09-26T12:25:41.330Z,79296
2018-09-26T12:26:41.577Z,79200
2018-09-26T12:27:41.645Z,79456
2018-09-26T12:28:41.847Z,74560
2018-09-26T12:29:41.323Z,70464
2018-09-26T12:30:41.042Z,74080
2018-09-26T12:31:41.600Z,76000
2018-09-26T12:32:41.574Z,75392
2018-09-26T12:33:41.839Z,72352
2018-09-26T12:34:41.607Z,66624
2018-09-26T12:35:41.857Z,64736
2018-09-26T12:36:41.322Z,64288
2018-09-26T12:37:41.837Z,64000
2018-09-26T12:38:41.370Z,65184
2018-09-26T12:39:41.580Z,69120
2018-09-26T12:40:41.315Z,73376
2018-09-26T12:41:41.320Z,73952
2018-09-26T12:42:41.781Z,71776
2018-09-26T12:43:41.582Z,67424
2018-09-26T12:44:41.851Z,59328
2018-09-26T12:45:41.587Z,58080
2018-09-26T12:46:41.597Z,60448
2018-09-26T12:47:41.588Z,66272
2018-09-26T12:48:41.878Z,73632
2018-09-26T12:49:41.597Z,77568
2018-09-26T12:50:41.585Z,76640
2018-09-26T12:51:41.327Z,74432
2018-09-26T12:52:41.336Z,69056
2018-09-26T12:53:41.901Z,60128
2018-09-26T12:54:41.331Z,63744
2018-09-26T12:55:41.601Z,64448
2018-09-26T12:56:41.537Z,66368
2018-09-26T12:57:41.086Z,67808
2018-09-26T12:58:41.653Z,67328
2018-09-26T12:59:41.605Z,64544
2018-09-26T13:00:42.090Z,60896
2018-09-26T13:01:41.610Z,56224
2018-09-26T13:02:42.092Z,51296
2018-09-26T13:03:41.897Z,53792
2018-09-26T13:04:41.348Z,61568
2018-09-26T13:05:41.351Z,64512
2018-09-26T13:06:41.084Z,64224
2018-09-26T13:07:41.083Z,64256
2018-09-26T13:08:41.894Z,61376
2018-09-26T13:09:41.626Z,57088
2018-09-26T13:10:41.353Z,54048
2018-09-26T13:11:41.352Z,53408
2018-09-26T13:12:41.095Z,53056
2018-09-26T13:13:41.439Z,53376
2018-09-26T13:14:41.623Z,52576
2018-09-26T13:15:41.635Z,50336
2018-09-26T13:16:41.362Z,50176
2018-09-26T13:17:41.899Z,45568
2018-09-26T13:18:41.631Z,48288
2018-09-26T13:19:41.629Z,51072
2018-09-26T13:20:41.366Z,54848
2018-09-26T13:21:41.639Z,57280
2018-09-26T13:22:41.628Z,56416
2018-09-26T13:23:41.892Z,53760
2018-09-26T13:24:41.362Z,51712
2018-09-26T13:25:42.137Z,48416
2018-09-26T13:26:41.898Z,49472
2018-09-26T13:27:41.896Z,53664
2018-09-26T13:28:41.641Z,57248
2018-09-26T13:29:41.634Z,57472
2018-09-26T13:30:41.380Z,55520
2018-09-26T13:31:41.639Z,47328
2018-09-26T13:32:41.901Z,44768
2018-09-26T13:33:41.632Z,43904
2018-09-26T13:34:41.636Z,44768
2018-09-26T13:35:41.891Z,47200
2018-09-26T13:36:41.369Z,47744
2018-09-26T13:37:41.640Z,46336
2018-09-26T13:38:41.106Z,44864
2018-09-26T13:39:41.515Z,43040
2018-09-26T13:40:41.636Z,38656
2018-09-26T13:41:41.654Z,41664
2018-09-26T13:42:41.382Z,44896
2018-09-26T13:43:41.382Z,48512
2018-09-26T13:44:41.643Z,48192